Time;durP1;ratioP1;P1;durP2;ratioP2;P2;SDS_P1;SDS_P2;PMS_P1;PMS_P2;Temp;Humidity;BMP_temperature;BMP_pressure;BME280_temperature;BME280_humidity;BME280_pressure;Samples;Min_cycle;Max_cycle;Signal;HPM_P1;HPM_P2
2022/03/09 00:01:50;;;;;;;12.25;6.85;;;4.00;99.50;;;;;;5013994;28;20042;-69
2022/03/09 00:04:16;;;;;;;9.45;6.30;;;;;;;;;;5013412;28;20054;-68
2022/03/09 00:06:42;;;;;;;11.10;6.43;;;;;;;;;;5013982;28;20081;-68
2022/03/09 00:09:10;;;;;;;12.20;6.30;;;;;;;;;;5013442;28;20042;-69
2022/03/09 00:11:36;;;;;;;8.75;5.93;;;3.40;90.20;;;;;;5013698;28;20098;-68
2022/03/09 00:14:02;;;;;;;7.65;6.07;;;3.30;90.40;;;;;;5013353;28;20042;-68
2022/03/09 00:16:28;;;;;;;12.38;6.65;;;3.10;99.90;;;;;;5013454;28;20339;-68
2022/03/09 00:18:54;;;;;;;9.73;6.20;;;3.30;95.30;;;;;;5013591;28;20132;-69
2022/03/09 00:21:20;;;;;;;12.40;6.68;;;;;;;;;;5013292;28;20607;-68
2022/03/09 00:23:46;;;;;;;11.40;6.38;;;3.80;99.90;;;;;;5013362;28;20040;-68
2022/03/09 00:26:12;;;;;;;12.68;6.40;;;;;;;;;;5013253;28;20042;-68
2022/03/09 00:28:38;;;;;;;12.30;6.25;;;3.20;94.10;;;;;;5013562;28;20050;-69
2022/03/09 00:31:04;;;;;;;12.10;6.55;;;2.80;94.90;;;;;;5013126;28;20567;-69
2022/03/09 00:33:30;;;;;;;12.93;6.60;;;3.20;99.90;;;;;;5013488;28;20033;-69
2022/03/09 00:35:56;;;;;;;15.63;6.20;;;;;;;;;;5013096;28;20046;-68
2022/03/09 00:38:22;;;;;;;8.98;6.15;;;;;;;;;;5012975;28;20038;-68
2022/03/09 00:40:50;;;;;;;14.57;6.45;;;2.70;98.20;;;;;;5012807;28;20077;-68
2022/03/09 00:43:16;;;;;;;9.90;6.78;;;3.20;99.90;;;;;;5012978;28;20038;-68
2022/03/09 00:45:42;;;;;;;11.90;6.93;;;;;;;;;;5012966;28;20121;-69
2022/03/09 00:48:07;;;;;;;11.63;6.80;;;3.10;99.90;;;;;;5012821;28;20038;-68
2022/03/09 00:50:33;;;;;;;10.30;6.90;;;;;;;;;;5012817;28;20041;-68
2022/03/09 00:52:59;;;;;;;11.57;7.03;;;3.00;96.90;;;;;;5012893;28;20049;-68
2022/03/09 00:55:25;;;;;;;9.07;6.70;;;;;;;;;;5012694;28;20037;-69
2022/03/09 00:57:51;;;;;;;10.35;7.45;;;2.90;99.90;;;;;;5012435;28;20077;-69
2022/03/09 01:00:17;;;;;;;11.68;6.93;;;3.10;99.90;;;;;;5012732;28;20501;-69
2022/03/09 01:02:45;;;;;;;14.75;7.65;;;2.60;99.90;;;;;;5012859;28;20081;-69
2022/03/09 01:05:12;;;;;;;12.65;7.28;;;2.80;99.90;;;;;;5012821;28;20133;-68
2022/03/09 01:07:38;;;;;;;9.48;7.15;;;;;;;;;;5012322;28;20103;-68
2022/03/09 01:10:05;;;;;;;11.25;7.18;;;2.80;99.90;;;;;;5012558;28;20073;-68
2022/03/09 01:12:30;;;;;;;10.00;7.10;;;2.60;99.90;;;;;;5012461;28;20121;-70
2022/03/09 01:14:57;;;;;;;11.90;7.47;;;;;;;;;;5012452;28;20172;-69
2022/03/09 01:17:23;;;;;;;11.65;7.50;;;2.70;96.60;;;;;;5012531;28;20054;-69
2022/03/09 01:19:49;;;;;;;10.57;6.97;;;2.50;99.90;;;;;;5012062;28;20037;-68
2022/03/09 01:22:18;;;;;;;12.60;7.50;;;2.90;99.90;;;;;;5012639;28;20038;-68
2022/03/09 01:24:44;;;;;;;11.90;7.63;;;;;;;;;;5012089;28;20030;-68
2022/03/09 01:27:10;;;;;;;11.30;6.63;;;2.90;99.90;;;;;;4994449;28;20394;-68
2022/03/09 01:29:36;;;;;;;10.27;7.07;;;;;;;;;;5012066;28;20049;-60
2022/03/09 01:32:02;;;;;;;10.35;7.25;;;2.70;99.90;;;;;;5011995;28;20042;-60
2022/03/09 01:34:28;;;;;;;11.20;7.47;;;;;;;;;;5012487;28;20124;-60
2022/03/09 01:36:53;;;;;;;11.63;7.15;;;2.30;99.90;;;;;;5011376;28;20418;-60
2022/03/09 01:39:20;;;;;;;13.07;7.38;;;;;;;;;;5011701;28;20048;-61
2022/03/09 01:41:46;;;;;;;10.73;7.50;;;;;;;;;;5011969;28;20053;-60
2022/03/09 01:44:14;;;;;;;10.20;7.28;;;2.50;99.90;;;;;;5012193;28;20117;-61
2022/03/09 01:46:41;;;;;;;11.88;7.55;;;2.60;99.90;;;;;;4994210;28;20116;-60
2022/03/09 01:49:08;;;;;;;10.68;7.63;;;2.60;99.90;;;;;;5011732;28;20486;-60
2022/03/09 01:51:37;;;;;;;10.23;7.40;;;2.70;99.90;;;;;;5012164;28;20034;-60
2022/03/09 01:54:04;;;;;;;12.75;7.82;;;2.40;99.90;;;;;;5011940;28;20453;-60
2022/03/09 01:56:30;;;;;;;11.35;7.78;;;2.30;99.90;;;;;;5011888;28;20034;-60
2022/03/09 01:59:02;;;;;;;14.70;7.80;;;2.50;99.90;;;;;;4994595;28;20564;-60
2022/03/09 02:01:53;;;;;;;11.93;8.10;;;2.30;99.90;;;;;;5028298;22;20060;-66
2022/03/09 02:04:19;;;;;;;11.27;7.63;;;2.20;99.90;;;;;;4979896;28;20042;-66
2022/03/09 02:06:46;;;;;;;11.63;7.80;;;2.40;99.90;;;;;;4996109;28;20045;-67
2022/03/09 02:11:57;;;;;;;10.57;7.82;;;2.30;99.90;;;;;;4996083;28;20129;-66
2022/03/09 02:14:38;;;;;;;14.77;8.38;;;1.70;99.90;;;;;;4995959;28;20103;-66
2022/03/09 02:17:13;;;;;;;12.27;7.97;;;2.20;99.90;;;;;;5013913;28;20354;-66
2022/03/09 02:19:40;;;;;;;14.02;8.32;;;2.40;99.90;;;;;;5015224;28;20061;-66
2022/03/09 02:22:33;;;;;;;15.77;8.40;;;2.00;99.90;;;;;;4999962;28;20081;-66
2022/03/09 02:25:00;;;;;;;12.52;8.60;;;2.00;99.90;;;;;;5006292;28;20050;-66
2022/03/09 02:27:26;;;;;;;14.38;7.93;;;2.20;99.90;;;;;;5017690;28;20065;-66
2022/03/09 02:29:53;;;;;;;14.02;8.45;;;2.60;99.90;;;;;;4999743;28;20046;-66
2022/03/09 02:32:20;;;;;;;15.68;8.55;;;2.20;99.90;;;;;;5016001;28;20132;-66
2022/03/09 02:34:47;;;;;;;12.95;8.10;;;2.00;99.90;;;;;;4999690;28;20053;-66
2022/03/09 02:37:13;;;;;;;13.38;8.50;;;2.10;99.90;;;;;;4999644;28;20520;-67
2022/03/09 02:39:39;;;;;;;15.98;8.40;;;2.20;99.90;;;;;;4999830;28;20443;-66
2022/03/09 02:42:06;;;;;;;13.50;8.40;;;2.00;99.90;;;;;;5016542;28;20111;-66
2022/03/09 02:44:32;;;;;;;13.00;8.18;;;1.90;99.90;;;;;;5000058;28;20125;-66
2022/03/09 02:46:58;;;;;;;12.93;8.32;;;2.30;99.90;;;;;;4999431;28;20038;-66
2022/03/09 02:49:24;;;;;;;13.43;7.93;;;1.80;99.90;;;;;;4999414;28;20081;-66
2022/03/09 02:51:50;;;;;;;15.13;8.63;;;2.40;99.90;;;;;;4999609;28;20054;-67
2022/03/09 02:54:17;;;;;;;13.40;8.77;;;2.10;99.90;;;;;;4999354;28;20042;-66
2022/03/09 02:56:43;;;;;;;15.10;8.10;;;1.90;99.90;;;;;;4999188;28;20496;-66
2022/03/09 02:59:09;;;;;;;12.13;8.35;;;1.70;99.90;;;;;;5017012;28;20112;-66
2022/03/09 03:01:35;;;;;;;12.05;8.45;;;1.80;99.90;;;;;;4999007;28;20050;-66
2022/03/09 03:04:00;;;;;;;13.50;8.60;;;1.80;99.90;;;;;;4999084;28;20045;-66
2022/03/09 03:06:27;;;;;;;13.65;8.65;;;;;;;;;;5015709;28;20132;-66
2022/03/09 03:08:52;;;;;;;14.07;8.80;;;1.40;99.90;;;;;;5016762;28;20042;-66
2022/03/09 03:11:18;;;;;;;13.57;9.07;;;1.60;99.90;;;;;;5015250;28;20052;-66
2022/03/09 03:13:45;;;;;;;14.50;8.40;;;1.40;99.90;;;;;;5015236;28;20129;-66
2022/03/09 03:16:11;;;;;;;15.50;9.20;;;1.50;99.90;;;;;;4982368;28;20046;-66
2022/03/09 03:18:37;;;;;;;14.70;8.60;;;2.50;99.90;;;;;;4998836;28;20095;-67
2022/03/09 03:21:06;;;;;;;14.57;8.85;;;2.10;99.90;;;;;;5015066;28;20100;-66
2022/03/09 03:23:35;;;;;;;14.82;9.05;;;2.50;99.90;;;;;;4999550;28;20481;-66
2022/03/09 03:26:03;;;;;;;15.20;8.98;;;1.20;99.90;;;;;;4998723;28;20042;-66
2022/03/09 03:28:30;;;;;;;12.70;8.43;;;1.00;99.90;;;;;;4998765;28;20042;-67
2022/03/09 03:30:55;;;;;;;13.25;8.60;;;1.20;99.90;;;;;;5014921;28;20123;-66
2022/03/09 03:33:22;;;;;;;13.77;8.55;;;0.50;99.90;;;;;;4982433;28;20092;-66
2022/03/09 03:35:49;;;;;;;15.43;8.65;;;;;;;;;;5015176;28;20072;-66
2022/03/09 03:38:15;;;;;;;17.35;9.07;;;1.30;99.90;;;;;;4998791;28;20049;-67
2022/03/09 03:40:43;;;;;;;11.18;8.15;;;1.30;99.90;;;;;;4998464;28;20085;-66
2022/03/09 03:43:08;;;;;;;16.40;8.68;;;1.40;99.90;;;;;;4998368;28;20034;-66
2022/03/09 03:45:35;;;;;;;12.73;8.18;;;;;;;;;;5016200;28;20030;-66
2022/03/09 03:48:01;;;;;;;13.70;8.48;;;1.50;99.90;;;;;;4982088;28;20121;-66
2022/03/09 03:50:27;;;;;;;12.05;8.73;;;;;;;;;;5016352;28;20046;-67
2022/03/09 03:52:53;;;;;;;13.55;8.80;;;0.80;99.90;;;;;;4998170;28;20133;-67
2022/03/09 03:55:19;;;;;;;15.93;8.77;;;;;;;;;;4998378;28;20128;-66
2022/03/09 03:57:45;;;;;;;14.98;8.45;;;1.30;99.90;;;;;;4998077;28;20053;-66
2022/03/09 04:00:12;;;;;;;14.98;8.85;;;1.40;99.90;;;;;;5014514;28;20041;-66
2022/03/09 04:02:37;;;;;;;14.07;8.60;;;1.20;99.90;;;;;;4999090;28;20058;-66
2022/03/09 04:05:05;;;;;;;14.40;8.18;;;;;;;;;;5014375;28;20559;-66
2022/03/09 04:07:31;;;;;;;13.93;8.90;;;1.40;99.90;;;;;;4998198;28;20073;-66
2022/03/09 04:09:57;;;;;;;15.02;9.40;;;;;;;;;;5015510;28;20076;-66
2022/03/09 04:12:24;;;;;;;15.80;8.70;;;;;;;;;;4997896;28;20092;-67
2022/03/09 04:14:50;;;;;;;14.65;8.48;;;1.20;99.90;;;;;;4997825;28;20046;-66
2022/03/09 04:17:17;;;;;;;14.43;8.70;;;;;;;;;;4997825;28;20046;-66
2022/03/09 04:19:44;;;;;;;17.67;8.93;;;1.40;99.90;;;;;;4997685;28;20124;-66
2022/03/09 04:22:09;;;;;;;12.85;8.38;;;0.40;99.90;;;;;;5015184;28;20051;-67
2022/03/09 04:24:35;;;;;;;15.35;8.57;;;1.30;99.90;;;;;;4997760;28;20041;-66
2022/03/09 04:27:01;;;;;;;14.15;8.70;;;;;;;;;;4997652;28;20054;-66
2022/03/09 04:29:31;;;;;;;13.57;8.90;;;;;;;;;;5015365;28;20038;-66
2022/03/09 04:31:57;;;;;;;14.20;8.50;;;1.20;99.90;;;;;;4981359;28;20485;-67
2022/03/09 04:34:23;;;;;;;15.98;8.90;;;2.20;99.90;;;;;;5013762;28;20115;-67
2022/03/09 04:36:48;;;;;;;15.50;8.80;;;1.30;99.90;;;;;;5015040;28;20038;-67
2022/03/09 04:39:14;;;;;;;14.13;8.27;;;2.10;99.90;;;;;;4997515;28;20050;-67
2022/03/09 04:41:40;;;;;;;14.50;8.57;;;1.40;99.90;;;;;;5014922;28;20127;-67
2022/03/09 04:44:09;;;;;;;17.65;8.10;;;1.30;99.90;;;;;;5015161;28;20061;-67
2022/03/09 04:46:34;;;;;;;14.27;8.65;;;0.80;99.90;;;;;;5014836;28;20042;-69
2022/03/09 04:49:02;;;;;;;14.48;8.50;;;1.10;99.90;;;;;;4981240;28;20052;-67
2022/03/09 04:51:28;;;;;;;14.07;8.80;;;1.50;99.90;;;;;;4997361;28;20425;-67
2022/03/09 04:53:54;;;;;;;15.10;10.02;;;;;;;;;;4997473;28;20117;-67
2022/03/09 04:56:21;;;;;;;14.43;8.52;;;1.30;99.90;;;;;;4997024;28;20535;-67
2022/03/09 04:58:50;;;;;;;17.17;8.93;;;0.90;99.90;;;;;;4997068;28;20078;-67
2022/03/09 05:01:16;;;;;;;17.42;8.48;;;1.20;99.90;;;;;;5009797;28;20097;-67
2022/03/09 05:03:41;;;;;;;13.25;8.43;;;1.20;99.90;;;;;;4993655;28;20046;-67
2022/03/09 05:06:07;;;;;;;14.95;8.50;;;1.10;99.90;;;;;;4995143;28;20034;-67
2022/03/09 05:08:34;;;;;;;13.40;8.57;;;1.10;99.90;;;;;;5009912;28;20042;-67
2022/03/09 05:10:59;;;;;;;14.40;8.73;;;1.20;99.90;;;;;;4994742;28;20057;-67
2022/03/09 05:13:25;;;;;;;14.55;8.68;;;;;;;;;;4994707;28;20038;-69
2022/03/09 05:15:51;;;;;;;14.70;8.32;;;1.10;99.90;;;;;;4993732;28;20383;-68
2022/03/09 05:18:17;;;;;;;15.27;8.20;;;1.10;99.90;;;;;;4994633;28;20045;-68
2022/03/09 05:20:42;;;;;;;14.13;9.00;;;0.40;99.90;;;;;;5009835;28;20049;-69
2022/03/09 05:23:09;;;;;;;14.13;8.73;;;;;;;;;;4977271;28;20053;-68
2022/03/09 05:25:35;;;;;;;15.13;8.38;;;1.70;99.90;;;;;;4993312;28;20501;-68
2022/03/09 05:28:01;;;;;;;15.90;8.98;;;0.60;99.90;;;;;;5009676;28;20046;-68
2022/03/09 05:30:27;;;;;;;13.93;8.32;;;0.80;99.90;;;;;;4994748;28;20049;-68
2022/03/09 05:32:53;;;;;;;14.57;9.00;;;0.80;99.90;;;;;;5009616;28;20489;-68
2022/03/09 05:35:18;;;;;;;13.75;8.50;;;0.60;99.90;;;;;;4977020;28;20078;-68
2022/03/09 05:37:45;;;;;;;16.90;9.00;;;0.80;99.90;;;;;;4993154;28;20077;-68
2022/03/09 05:40:12;;;;;;;21.13;9.40;;;0.90;99.90;;;;;;4993225;28;20053;-68
2022/03/09 05:42:38;;;;;;;13.10;9.20;;;0.90;99.90;;;;;;4993376;28;20038;-68
2022/03/09 05:45:08;;;;;;;13.63;8.57;;;0.70;99.90;;;;;;4993352;28;20096;-68
2022/03/09 05:47:34;;;;;;;21.38;9.13;;;0.00;99.90;;;;;;5009656;28;20078;-68
2022/03/09 05:49:59;;;;;;;14.82;9.05;;;0.80;99.90;;;;;;4976798;28;20082;-68
2022/03/09 05:52:25;;;;;;;16.67;9.35;;;0.90;99.90;;;;;;4976193;28;20077;-68
2022/03/09 05:54:52;;;;;;;14.98;9.50;;;;;;;;;;4994349;28;20073;-68
2022/03/09 05:57:20;;;;;;;16.73;9.40;;;0.60;99.90;;;;;;4993176;28;20050;-68
2022/03/09 05:59:50;;;;;;;15.23;9.05;;;0.50;99.90;;;;;;4994364;28;20086;-68
2022/03/09 06:02:16;;;;;;;15.02;9.18;;;0.70;99.90;;;;;;4976521;28;20054;-69
2022/03/09 06:04:43;;;;;;;16.30;9.07;;;0.80;99.90;;;;;;4988867;28;20125;-68
2022/03/09 06:07:09;;;;;;;14.00;9.02;;;0.50;99.90;;;;;;4992585;28;20050;-69
2022/03/09 06:09:35;;;;;;;15.20;8.88;;;0.50;99.90;;;;;;4992261;28;20053;-69
2022/03/09 06:12:01;;;;;;;15.55;8.70;;;0.40;99.90;;;;;;4992552;28;20039;-68
2022/03/09 06:14:26;;;;;;;14.43;9.13;;;0.70;99.90;;;;;;4992400;28;20077;-68
2022/03/09 06:16:55;;;;;;;15.02;9.15;;;;;;;;;;4992677;28;20493;-69
2022/03/09 06:19:22;;;;;;;17.90;9.63;;;;;;;;;;4993524;28;20433;-68
2022/03/09 06:21:48;;;;;;;16.95;9.48;;;;;;;;;;4992327;28;20442;-68
2022/03/09 06:24:18;;;;;;;16.55;9.77;;;;;;;;;;4992337;28;20042;-68
2022/03/09 06:26:45;;;;;;;16.42;9.57;;;0.70;99.90;;;;;;4992398;28;20051;-68
2022/03/09 06:29:11;;;;;;;16.63;9.85;;;0.50;99.90;;;;;;4992647;28;20054;-68
2022/03/09 06:31:38;;;;;;;18.48;10.95;;;0.30;99.90;;;;;;4976365;28;20050;-68
2022/03/09 06:34:03;;;;;;;18.67;10.48;;;1.80;99.90;;;;;;4992742;28;20050;-68
2022/03/09 06:36:30;;;;;;;17.38;10.82;;;0.80;99.90;;;;;;5008848;28;20494;-68
2022/03/09 06:38:55;;;;;;;22.25;10.68;;;0.10;99.90;;;;;;5008843;28;20042;-68
2022/03/09 06:41:21;;;;;;;32.47;11.70;;;0.00;99.90;;;;;;4992354;28;20053;-68
2022/03/09 06:43:47;;;;;;;23.52;11.32;;;0.90;99.90;;;;;;4976211;28;20571;-68
2022/03/09 06:46:14;;;;;;;27.30;11.85;;;1.10;99.90;;;;;;4993589;28;20043;-68
2022/03/09 06:48:40;;;;;;;21.20;11.93;;;;;;;;;;4992350;28;20038;-68
2022/03/09 06:51:06;;;;;;;23.80;11.70;;;0.50;99.90;;;;;;4992333;28;20042;-68
2022/03/09 06:53:35;;;;;;;21.98;11.52;;;1.10;99.90;;;;;;4992592;28;20441;-68
2022/03/09 06:56:01;;;;;;;20.48;11.15;;;1.20;99.90;;;;;;4976426;28;20038;-68
2022/03/09 06:58:27;;;;;;;21.48;11.35;;;1.20;99.90;;;;;;5008558;28;20073;-69
2022/03/09 07:00:53;;;;;;;20.08;10.82;;;1.00;99.90;;;;;;4979022;28;20050;-68
2022/03/09 07:03:18;;;;;;;21.98;10.57;;;1.30;99.90;;;;;;4979558;28;20050;-68
2022/03/09 07:05:44;;;;;;;19.30;10.95;;;1.40;99.90;;;;;;4998673;28;20485;-68
2022/03/09 07:08:10;;;;;;;18.15;11.05;;;;;;;;;;4983136;28;20050;-67
2022/03/09 07:10:36;;;;;;;22.70;11.73;;;1.00;99.90;;;;;;4982813;28;20042;-67
2022/03/09 07:13:02;;;;;;;19.83;11.75;;;1.30;99.90;;;;;;5015242;28;20070;-67
2022/03/09 07:15:27;;;;;;;19.48;10.43;;;1.60;99.90;;;;;;4982889;28;20374;-67
2022/03/09 07:17:53;;;;;;;22.58;10.88;;;1.10;99.90;;;;;;5015230;28;20544;-67
2022/03/09 07:20:20;;;;;;;22.17;11.48;;;1.50;99.90;;;;;;4998638;28;20421;-67
2022/03/09 07:22:46;;;;;;;23.92;11.05;;;1.60;99.90;;;;;;4982553;28;20116;-67
2022/03/09 07:25:14;;;;;;;31.83;10.98;;;2.80;99.90;;;;;;4982447;28;20050;-67
2022/03/09 07:27:41;;;;;;;25.40;10.93;;;1.90;99.90;;;;;;4998652;28;20046;-67
2022/03/09 07:30:08;;;;;;;23.98;9.95;;;1.50;99.90;;;;;;4998614;28;20046;-67
2022/03/09 07:32:34;;;;;;;18.52;9.77;;;;;;;;;;4998873;28;20038;-67
2022/03/09 07:35:00;;;;;;;24.30;9.77;;;;;;;;;;4998567;28;20046;-67
2022/03/09 07:37:27;;;;;;;26.42;10.20;;;2.20;99.90;;;;;;4998535;28;20044;-67
2022/03/09 07:39:54;;;;;;;22.60;10.35;;;2.10;99.90;;;;;;5014686;28;20041;-68
2022/03/09 07:42:21;;;;;;;19.63;10.25;;;;;;;;;;5016050;28;20366;-67
2022/03/09 07:44:46;;;;;;;17.10;9.73;;;2.30;99.90;;;;;;5016260;28;20388;-67
2022/03/09 07:47:13;;;;;;;20.55;10.13;;;2.10;99.90;;;;;;4998284;28;20045;-67
2022/03/09 07:49:39;;;;;;;23.52;9.68;;;;;;;;;;5014642;28;20073;-67
2022/03/09 07:52:06;;;;;;;25.25;10.50;;;2.50;99.90;;;;;;4998222;28;20105;-68
2022/03/09 07:54:32;;;;;;;17.40;9.80;;;2.50;99.90;;;;;;4998397;28;20050;-67
2022/03/09 07:56:58;;;;;;;14.18;9.63;;;2.60;99.90;;;;;;4998376;28;20519;-67
2022/03/09 07:59:26;;;;;;;14.20;9.50;;;2.40;99.90;;;;;;5015813;28;20370;-67
2022/03/09 08:01:55;;;;;;;16.67;9.93;;;2.90;99.90;;;;;;4997925;28;20093;-67
2022/03/09 08:04:22;;;;;;;19.85;10.10;;;3.00;99.90;;;;;;5015598;28;20374;-67
2022/03/09 08:06:49;;;;;;;18.50;9.23;;;2.90;99.90;;;;;;4998244;28;20033;-67
2022/03/09 08:09:15;;;;;;;18.67;9.55;;;;;;;;;;4998240;28;20125;-67
2022/03/09 08:11:42;;;;;;;17.77;10.15;;;2.80;99.90;;;;;;4997954;28;20077;-67
2022/03/09 08:14:08;;;;;;;12.63;9.35;;;3.00;99.90;;;;;;4998201;28;20072;-67
2022/03/09 08:16:34;;;;;;;15.45;9.73;;;3.10;99.90;;;;;;4980717;28;20397;-67
2022/03/09 08:19:03;;;;;;;15.18;9.65;;;3.00;99.90;;;;;;5013919;28;20045;-67
2022/03/09 08:21:29;;;;;;;19.27;9.45;;;3.40;99.90;;;;;;4997674;28;20057;-67
2022/03/09 08:23:55;;;;;;;17.27;9.20;;;3.30;99.90;;;;;;4997912;28;20079;-67
2022/03/09 08:26:25;;;;;;;13.55;9.18;;;;;;;;;;5015193;28;20500;-68
2022/03/09 08:28:50;;;;;;;16.80;9.75;;;3.70;99.90;;;;;;4997582;28;20087;-68
2022/03/09 08:31:17;;;;;;;18.48;10.13;;;3.60;99.90;;;;;;5013723;28;20475;-69
2022/03/09 08:33:43;;;;;;;13.82;9.48;;;3.70;99.90;;;;;;5015198;28;20038;-68
2022/03/09 08:36:11;;;;;;;15.75;10.75;;;;;;;;;;4981198;28;20042;-68
2022/03/09 08:38:37;;;;;;;19.20;11.02;;;;;;;;;;5013597;28;20134;-69
2022/03/09 08:41:03;;;;;;;16.95;11.82;;;4.10;99.90;;;;;;5013546;28;20096;-68
2022/03/09 08:43:29;;;;;;;19.83;11.60;;;4.50;99.90;;;;;;4997362;28;20042;-68
2022/03/09 08:45:58;;;;;;;19.73;11.20;;;6.10;99.90;;;;;;5013747;28;20038;-68
2022/03/09 08:48:26;;;;;;;14.25;9.82;;;6.80;96.60;;;;;;5013459;28;20078;-68
2022/03/09 08:50:55;;;;;;;15.13;9.38;;;8.40;92.90;;;;;;4997080;28;20056;-68
2022/03/09 08:53:21;;;;;;;15.43;9.13;;;9.20;90.20;;;;;;4997108;28;20045;-69
2022/03/09 08:55:48;;;;;;;16.40;8.75;;;9.00;75.40;;;;;;4997679;28;20133;-68
2022/03/09 08:58:14;;;;;;;13.77;8.93;;;9.60;63.70;;;;;;4996943;28;20477;-68
2022/03/09 09:00:40;;;;;;;18.05;8.30;;;10.00;86.70;;;;;;4996714;28;20116;-68
2022/03/09 09:03:06;;;;;;;13.13;8.13;;;9.60;86.50;;;;;;5014414;28;20042;-68
2022/03/09 09:05:32;;;;;;;16.83;8.63;;;8.60;85.30;;;;;;5013091;28;20038;-68
2022/03/09 09:07:57;;;;;;;14.15;8.20;;;8.30;87.30;;;;;;4996884;28;20042;-68
2022/03/09 09:10:23;;;;;;;13.70;8.52;;;8.80;88.90;;;;;;5013312;28;20038;-68
2022/03/09 09:12:50;;;;;;;23.17;8.40;;;9.00;88.10;;;;;;4996889;28;20145;-68
2022/03/09 09:15:16;;;;;;;17.80;8.40;;;9.40;87.50;;;;;;5012898;28;20046;-68
2022/03/09 09:17:42;;;;;;;15.77;8.18;;;9.10;88.10;;;;;;5013251;28;20389;-68
2022/03/09 09:20:09;;;;;;;14.75;8.18;;;9.20;87.60;;;;;;4996446;28;20042;-68
2022/03/09 09:22:35;;;;;;;18.70;9.13;;;9.40;87.60;;;;;;4996582;28;20114;-68
2022/03/09 09:25:01;;;;;;;15.60;8.05;;;9.60;86.10;;;;;;4996808;28;20042;-68
2022/03/09 09:27:27;;;;;;;14.55;8.15;;;9.40;85.20;;;;;;5013694;28;20140;-68
2022/03/09 09:29:53;;;;;;;15.20;7.95;;;9.40;84.20;;;;;;4996724;28;20091;-68
2022/03/09 09:32:19;;;;;;;13.90;8.35;;;;;;;;;;5013051;28;20073;-68
2022/03/09 09:34:46;;;;;;;15.38;7.78;;;;;;;;;;4980532;28;20057;-68
2022/03/09 09:37:11;;;;;;;10.48;7.85;;;9.40;82.70;;;;;;4996380;28;20041;-68
2022/03/09 09:39:39;;;;;;;15.98;8.15;;;;;;;;;;4996463;28;20042;-68
2022/03/09 09:42:05;;;;;;;17.23;8.10;;;10.30;83.60;;;;;;4996479;28;20374;-68
2022/03/09 09:44:34;;;;;;;16.90;7.85;;;10.00;82.40;;;;;;5014097;28;20034;-68
2022/03/09 09:47:00;;;;;;;14.82;7.70;;;;;;;;;;5012552;28;20528;-68
2022/03/09 09:49:25;;;;;;;14.90;8.77;;;9.70;82.70;;;;;;5013589;28;20371;-68
2022/03/09 09:51:53;;;;;;;16.92;8.35;;;10.00;83.00;;;;;;5012793;28;20042;-68
2022/03/09 09:54:21;;;;;;;16.13;8.23;;;9.90;81.40;;;;;;4996311;28;20052;-68
2022/03/09 09:56:47;;;;;;;16.95;8.73;;;10.20;81.40;;;;;;4996316;28;20045;-68
2022/03/09 09:59:12;;;;;;;14.50;8.15;;;10.10;81.40;;;;;;4996026;28;20038;-68
2022/03/09 10:01:40;;;;;;;13.88;8.25;;;10.10;80.90;;;;;;4995731;28;20112;-68
2022/03/09 10:04:07;;;;;;;12.18;8.18;;;10.30;80.70;;;;;;4996105;28;20567;-68
2022/03/09 10:06:33;;;;;;;16.92;8.02;;;10.20;80.80;;;;;;4996272;28;20045;-68
2022/03/09 10:09:13;;;;;;;19.38;8.50;;;9.70;79.80;;;;;;4996199;28;20049;-69
2022/03/09 10:11:55;;;;;;;13.55;8.45;;;9.80;58.80;;;;;;4993844;28;20042;-70
2022/03/09 10:14:44;;;;;;;12.70;8.38;;;9.90;80.30;;;;;;4996261;28;20042;-70
2022/03/09 10:17:12;;;;;;;11.57;8.10;;;9.60;73.30;;;;;;4996176;28;20053;-70
2022/03/09 10:19:41;;;;;;;13.73;8.25;;;9.90;59.40;;;;;;4995833;28;20045;-70
2022/03/09 10:22:25;;;;;;;17.58;8.82;;;10.00;79.70;;;;;;5012325;28;20113;-70
2022/03/09 10:24:53;;;;;;;11.40;8.55;;;10.50;79.60;;;;;;4995862;28;20104;-70
2022/03/09 10:27:33;;;;;;;13.07;8.50;;;10.00;79.20;;;;;;4995736;28;20076;-71
2022/03/09 10:30:02;;;;;;;12.77;8.70;;;10.30;78.30;;;;;;4996191;28;20049;-70
2022/03/09 10:32:45;;;;;;;10.90;7.93;;;10.00;78.20;;;;;;5012108;28;20103;-70
2022/03/09 10:35:15;;;;;;;13.50;8.20;;;10.40;78.30;;;;;;5013579;28;20092;-70
2022/03/09 10:37:42;;;;;;;21.02;8.52;;;10.30;79.00;;;;;;4995718;28;20540;-70
2022/03/09 10:40:13;;;;;;;17.63;8.77;;;10.50;78.10;;;;;;4998095;28;20053;-70
2022/03/09 10:42:39;;;;;;;14.43;8.57;;;10.40;78.20;;;;;;5017163;28;20129;-71
2022/03/09 10:45:08;;;;;;;14.85;8.40;;;11.10;78.40;;;;;;5016847;28;20053;-71
2022/03/09 10:47:40;;;;;;;14.15;8.45;;;11.50;77.50;;;;;;4999747;28;20393;-70
2022/03/09 10:50:11;;;;;;;15.10;8.50;;;10.80;63.60;;;;;;4983444;28;20050;-70
2022/03/09 10:53:11;;;;;;;15.00;8.27;;;10.80;74.20;;;;;;4999409;28;20049;-71
2022/03/09 10:55:37;;;;;;;21.20;8.80;;;10.70;74.10;;;;;;5015218;28;20441;-71
2022/03/09 10:58:13;;;;;;;20.73;9.25;;;10.70;56.20;;;;;;4982997;28;20045;-71
2022/03/09 11:00:44;;;;;;;12.57;8.68;;;10.80;73.80;;;;;;5015305;28;20058;-71
2022/03/09 11:03:21;;;;;;;17.48;8.70;;;11.30;73.70;;;;;;4999018;28;20124;-71
2022/03/09 11:05:52;;;;;;;17.88;9.38;;;10.80;73.30;;;;;;4999154;28;20045;-71
2022/03/09 11:08:47;;;;;;;19.48;8.57;;;11.00;74.00;;;;;;4999080;28;20124;-71
2022/03/09 11:11:14;;;;;;;15.90;8.87;;;10.80;71.70;;;;;;4991324;28;20053;-71
2022/03/09 11:13:40;;;;;;;15.10;9.35;;;11.00;72.90;;;;;;4998709;28;20292;-71
2022/03/09 11:16:07;;;;;;;14.27;8.73;;;11.10;72.10;;;;;;4998861;28;20050;-71
2022/03/09 11:18:35;;;;;;;15.90;9.27;;;11.00;72.00;;;;;;5014967;28;20489;-71
2022/03/09 11:21:04;;;;;;;21.60;8.80;;;10.80;71.30;;;;;;4998455;28;20046;-69
2022/03/09 11:23:31;;;;;;;15.93;8.73;;;11.10;54.30;;;;;;4998530;28;20034;-68
2022/03/09 11:26:24;;;;;;;17.00;9.27;;;10.50;70.30;;;;;;5016368;28;20034;-68
2022/03/09 11:29:00;;;;;;;12.35;8.57;;;11.20;54.60;;;;;;5014777;28;20432;-68
2022/03/09 11:31:48;;;;;;;22.83;10.30;;;11.20;71.40;;;;;;4998383;28;20046;-69
2022/03/09 11:34:34;;;;;;;15.77;9.20;;;11.10;70.60;;;;;;4998441;28;20405;-69
2022/03/09 11:37:02;;;;;;;18.35;8.70;;;11.30;71.40;;;;;;4998026;28;20058;-69
2022/03/09 11:39:28;;;;;;;27.38;9.55;;;11.90;72.30;;;;;;4982242;28;20129;-69
2022/03/09 11:42:21;;;;;;;18.27;8.77;;;11.30;72.70;;;;;;4998004;28;20044;-68
2022/03/09 11:44:52;;;;;;;17.23;9.32;;;12.00;72.10;;;;;;4998398;28;20038;-69
2022/03/09 11:47:18;;;;;;;12.32;8.82;;;11.60;71.40;;;;;;5015144;28;20034;-68
2022/03/09 11:49:52;;;;;;;15.13;9.40;;;12.00;70.50;;;;;;4981915;28;20440;-69
2022/03/09 11:52:24;;;;;;;14.88;8.85;;;12.10;70.40;;;;;;5013768;28;20052;-68
2022/03/09 11:54:54;;;;;;;12.70;9.10;;;11.90;70.10;;;;;;5016058;28;20161;-69
2022/03/09 11:57:23;;;;;;;15.00;9.63;;;11.90;69.70;;;;;;4998268;28;20076;-69
2022/03/09 12:00:13;;;;;;;14.40;9.63;;;12.20;70.70;;;;;;5015887;28;20366;-68
2022/03/09 12:02:40;;;;;;;14.02;8.95;;;;;;;;;;5015656;28;20134;-69
2022/03/09 12:05:28;;;;;;;17.90;9.57;;;11.70;68.90;;;;;;4998433;28;20132;-68
2022/03/09 12:07:55;;;;;;;18.73;9.77;;;12.40;68.30;;;;;;5014189;28;20058;-68
2022/03/09 12:10:55;;;;;;;16.00;9.98;;;12.20;67.50;;;;;;4997973;28;20128;-68
2022/03/09 12:13:42;;;;;;;16.65;9.15;;;12.60;68.00;;;;;;5006325;28;20069;-69
2022/03/09 12:16:15;;;;;;;13.55;8.90;;;12.70;67.80;;;;;;5015685;28;20120;-69
2022/03/09 12:19:00;;;;;;;16.35;9.40;;;12.60;54.70;;;;;;4997448;28;20045;-69
2022/03/09 12:21:26;;;;;;;15.40;9.32;;;13.10;67.00;;;;;;5015503;28;20064;-69
2022/03/09 12:24:04;;;;;;;14.68;9.23;;;13.20;67.50;;;;;;4997649;28;20042;-69
2022/03/09 12:26:47;;;;;;;18.48;9.13;;;13.10;66.10;;;;;;4981422;28;20037;-69
2022/03/09 12:29:28;;;;;;;18.15;9.65;;;13.30;66.30;;;;;;4997818;28;20512;-69
2022/03/09 12:32:01;;;;;;;19.33;9.07;;;13.20;66.00;;;;;;4997825;28;20046;-69
2022/03/09 12:34:31;;;;;;;20.13;9.27;;;13.40;66.50;;;;;;4981449;28;20073;-69
2022/03/09 12:36:58;;;;;;;22.88;9.18;;;13.20;66.20;;;;;;5013898;28;20042;-69
2022/03/09 12:39:24;;;;;;;16.75;9.10;;;;;;;;;;4997588;28;20034;-68
2022/03/09 12:41:56;;;;;;;14.55;9.43;;;13.30;65.00;;;;;;4997594;28;20064;-71
2022/03/09 12:44:22;;;;;;;17.55;9.25;;;12.80;64.40;;;;;;5014750;28;20041;-71
2022/03/09 12:46:50;;;;;;;13.40;9.20;;;13.30;64.50;;;;;;5014192;28;20042;-72
2022/03/09 12:49:43;;;;;;;16.13;9.18;;;14.10;64.40;;;;;;4997118;28;20046;-71
2022/03/09 12:52:08;;;;;;;12.93;9.10;;;13.80;64.80;;;;;;4996813;28;20050;-72
2022/03/09 12:54:34;;;;;;;13.68;9.32;;;13.70;64.60;;;;;;4997113;28;20046;-72
2022/03/09 12:57:28;;;;;;;15.98;9.45;;;13.70;64.70;;;;;;5014923;28;20034;-72
2022/03/09 13:00:09;;;;;;;16.25;9.60;;;13.60;63.00;;;;;;5014514;28;20493;-72
2022/03/09 13:02:52;;;;;;;15.30;8.98;;;13.60;64.20;;;;;;4961018;28;20046;-72
2022/03/09 13:05:18;;;;;;;16.55;9.30;;;13.80;64.10;;;;;;4977556;28;20078;-70
2022/03/09 13:07:55;;;;;;;17.15;9.00;;;14.30;63.20;;;;;;4977651;28;20074;-69